createdAt,value
2023-01-07T00:01:44.624Z,80.76
2023-01-07T00:04:15.523Z,81.08
2023-01-07T00:06:47.243Z,81.17
2023-01-07T00:09:17.416Z,81.02
2023-01-07T00:11:46.444Z,80.87
2023-01-07T00:14:15.741Z,81.09
2023-01-07T00:16:44.656Z,81.26
2023-01-07T00:19:16.835Z,81.09
2023-01-07T00:21:44.991Z,80.66
2023-01-07T00:24:13.890Z,80.85
2023-01-07T00:26:43.385Z,80.93
2023-01-07T00:29:11.675Z,80.67
2023-01-07T00:31:41.717Z,81.09
2023-01-07T00:34:10.373Z,81.24
2023-01-07T00:36:42.607Z,81.18
2023-01-07T00:39:14.995Z,81.58
2023-01-07T00:42:06.436Z,81.57
2023-01-07T00:44:36.906Z,81.86
2023-01-07T00:47:04.988Z,82.00
2023-01-07T00:49:33.105Z,81.85
2023-01-07T00:52:01.131Z,82.05
2023-01-07T00:54:29.353Z,82.25
2023-01-07T00:56:58.737Z,82.38
2023-01-07T00:59:26.839Z,82.10
2023-01-07T01:01:55.001Z,82.05
2023-01-07T01:04:23.065Z,82.39
2023-01-07T01:06:51.426Z,82.18
2023-01-07T01:09:20.682Z,82.60
2023-01-07T01:11:48.760Z,82.76
2023-01-07T01:14:18.173Z,82.94
2023-01-07T01:16:46.200Z,83.19
2023-01-07T01:19:14.265Z,83.22
2023-01-07T01:21:42.835Z,83.31
2023-01-07T01:24:11.047Z,83.92
2023-01-07T01:26:39.144Z,84.09
2023-01-07T01:29:07.277Z,84.12
2023-01-07T01:31:36.735Z,84.02
2023-01-07T01:34:04.980Z,84.22
2023-01-07T01:36:33.069Z,84.42
2023-01-07T01:39:01.137Z,84.68
2023-01-07T01:41:29.285Z,84.29
2023-01-07T01:43:57.372Z,84.46
2023-01-07T01:46:40.610Z,84.65
2023-01-07T01:49:21.997Z,84.90
2023-01-07T01:51:57.896Z,84.79
2023-01-07T01:54:28.223Z,84.89
2023-01-07T01:57:00.999Z,84.73
2023-01-07T01:59:35.710Z,84.88
2023-01-07T02:02:07.438Z,85.05
2023-01-07T02:04:37.509Z,85.03
2023-01-07T02:07:12.407Z,85.12
2023-01-07T02:09:40.410Z,85.30
2023-01-07T02:12:22.581Z,85.30
2023-01-07T02:15:10.641Z,85.19
2023-01-07T02:18:02.909Z,85.17
2023-01-07T02:20:47.926Z,85.44
2023-01-07T02:24:06.879Z,84.97
2023-01-07T02:27:18.380Z,85.35
2023-01-07T02:30:30.023Z,84.99
2023-01-07T02:33:35.059Z,85.39
2023-01-07T02:36:31.848Z,84.93
2023-01-07T02:39:21.389Z,84.94
2023-01-07T02:41:58.483Z,84.90
2023-01-07T02:44:38.597Z,85.03
2023-01-07T02:47:16.931Z,84.77
2023-01-07T02:49:48.485Z,85.10
2023-01-07T02:52:21.525Z,85.16
2023-01-07T02:54:56.771Z,84.88
2023-01-07T02:58:15.412Z,84.66
2023-01-07T03:01:20.728Z,84.99
2023-01-07T03:04:18.288Z,85.43
2023-01-07T03:07:11.202Z,85.01
2023-01-07T03:09:55.280Z,85.20
2023-01-07T03:12:34.951Z,85.19
2023-01-07T03:15:13.137Z,85.23
2023-01-07T03:17:50.073Z,84.83
2023-01-07T03:20:23.238Z,85.18
2023-01-07T03:22:55.038Z,84.85
2023-01-07T03:25:26.182Z,84.95
2023-01-07T03:27:58.693Z,85.19
2023-01-07T03:30:28.929Z,84.84
2023-01-07T03:33:03.550Z,84.77
2023-01-07T03:35:36.866Z,84.84
2023-01-07T03:38:08.882Z,84.57
2023-01-07T03:40:37.338Z,84.06
2023-01-07T03:43:04.414Z,84.45
2023-01-07T03:45:32.869Z,84.28
2023-01-07T03:48:00.980Z,84.48
2023-01-07T03:50:28.977Z,84.41
2023-01-07T03:52:57.090Z,84.11
2023-01-07T03:55:26.721Z,84.30
2023-01-07T03:57:54.785Z,84.40
2023-01-07T04:00:22.984Z,84.73
2023-01-07T04:02:51.616Z,84.54
2023-01-07T04:05:20.494Z,84.53
2023-01-07T04:07:48.568Z,84.62
2023-01-07T04:10:16.668Z,84.84
2023-01-07T04:12:46.068Z,84.77
2023-01-07T04:15:14.153Z,84.51
2023-01-07T04:17:42.531Z,84.75
2023-01-07T04:20:12.163Z,84.89
2023-01-07T04:22:40.216Z,84.79
2023-01-07T04:25:09.011Z,84.68
2023-01-07T04:27:37.121Z,84.90
2023-01-07T04:30:08.138Z,85.01
2023-01-07T04:32:36.225Z,84.74
2023-01-07T04:35:04.764Z,85.08
2023-01-07T04:37:32.834Z,84.62
2023-01-07T04:40:00.945Z,84.70
2023-01-07T04:42:28.950Z,84.35
2023-01-07T04:44:56.963Z,84.22
2023-01-07T04:47:26.702Z,84.60
2023-01-07T04:49:54.744Z,84.15
2023-01-07T04:52:22.780Z,84.10
2023-01-07T04:54:50.833Z,84.46
2023-01-07T04:57:18.862Z,84.44
2023-01-07T04:59:46.881Z,84.42
2023-01-07T05:02:15.011Z,84.73
2023-01-07T05:04:44.568Z,84.56
2023-01-07T05:07:12.633Z,84.46
2023-01-07T05:09:40.669Z,84.86
2023-01-07T05:12:08.765Z,84.57
2023-01-07T05:14:37.007Z,84.84
2023-01-07T05:17:05.197Z,84.62
2023-01-07T05:19:33.289Z,84.51
2023-01-07T05:22:02.659Z,84.84
2023-01-07T05:24:30.647Z,84.94
2023-01-07T05:26:58.729Z,85.06
2023-01-07T05:29:26.787Z,84.65
2023-01-07T05:31:54.896Z,84.60
2023-01-07T05:34:22.880Z,84.67
2023-01-07T05:36:50.948Z,84.47
2023-01-07T05:39:20.356Z,84.51
2023-01-07T05:41:48.392Z,84.71
2023-01-07T05:44:16.439Z,84.75
2023-01-07T05:46:45.074Z,84.67
2023-01-07T05:49:13.141Z,84.73
2023-01-07T05:51:41.125Z,84.71
2023-01-07T05:54:09.190Z,84.81
2023-01-07T05:56:38.548Z,84.47
2023-01-07T05:59:06.630Z,84.46
2023-01-07T06:01:34.651Z,84.64
2023-01-07T06:04:02.784Z,84.43
2023-01-07T06:06:30.785Z,84.33
2023-01-07T06:08:58.831Z,84.62
2023-01-07T06:11:26.870Z,84.44
2023-01-07T06:13:56.300Z,84.24
2023-01-07T06:16:24.677Z,84.27
2023-01-07T06:18:52.802Z,84.23
2023-01-07T06:21:21.538Z,84.33
2023-01-07T06:23:49.543Z,84.43
2023-01-07T06:26:17.597Z,84.30
2023-01-07T06:28:45.684Z,83.91
2023-01-07T06:31:15.120Z,83.72
2023-01-07T06:33:43.163Z,83.21
2023-01-07T06:36:11.635Z,83.00
2023-01-07T06:38:41.518Z,82.95
2023-01-07T06:41:10.261Z,82.73
2023-01-07T06:43:38.454Z,82.49
2023-01-07T06:46:07.252Z,82.68
2023-01-07T06:48:37.029Z,82.62
2023-01-07T06:51:05.350Z,82.08
2023-01-07T06:53:33.598Z,82.37
2023-01-07T06:56:02.009Z,82.24
2023-01-07T06:58:31.097Z,82.19
2023-01-07T07:01:04.629Z,82.52
2023-01-07T07:03:32.826Z,82.13
2023-01-07T07:06:02.442Z,81.92
2023-01-07T07:08:30.476Z,81.84
2023-01-07T07:10:58.511Z,82.23
2023-01-07T07:13:26.732Z,82.30
2023-01-07T07:15:55.162Z,82.08
2023-01-07T07:18:23.194Z,82.20
2023-01-07T07:20:51.353Z,82.03
2023-01-07T07:23:20.764Z,82.32
2023-01-07T07:25:48.807Z,82.34
2023-01-07T07:28:17.208Z,82.33
2023-01-07T07:30:47.360Z,82.28
2023-01-07T07:33:19.111Z,82.19
2023-01-07T07:35:47.720Z,82.06
2023-01-07T07:38:17.632Z,81.99
2023-01-07T07:40:47.065Z,81.88
2023-01-07T07:43:15.553Z,82.21
2023-01-07T07:45:44.270Z,82.26
2023-01-07T07:48:16.484Z,82.02
2023-01-07T07:50:44.594Z,82.17
2023-01-07T07:53:13.958Z,82.42
2023-01-07T07:55:42.745Z,82.00
2023-01-07T07:58:12.171Z,81.71
2023-01-07T08:00:40.206Z,82.08
2023-01-07T08:03:08.865Z,82.05
2023-01-07T08:05:37.333Z,81.80
2023-01-07T08:08:06.153Z,82.07
2023-01-07T08:10:34.405Z,81.97
2023-01-07T08:13:02.941Z,81.60
2023-01-07T08:15:33.123Z,81.85
2023-01-07T08:18:03.119Z,81.18
2023-01-07T08:20:32.130Z,81.23
2023-01-07T08:23:01.260Z,81.17
2023-01-07T08:25:30.829Z,81.02
2023-01-07T08:28:00.472Z,81.41
2023-01-07T08:30:29.943Z,81.36
2023-01-07T08:33:00.281Z,81.06
2023-01-07T08:35:28.441Z,81.36
2023-01-07T08:38:03.424Z,81.22
2023-01-07T08:40:31.559Z,80.96
2023-01-07T08:43:01.021Z,81.18
2023-01-07T08:45:30.550Z,81.06
2023-01-07T08:48:00.609Z,81.30
2023-01-07T08:50:31.265Z,81.32
2023-01-07T08:52:59.979Z,81.05
2023-01-07T08:55:28.137Z,81.10
2023-01-07T08:57:56.251Z,81.07
2023-01-07T09:00:25.567Z,81.43
2023-01-07T09:02:54.064Z,81.28
2023-01-07T09:05:24.501Z,81.33
2023-01-07T09:07:54.130Z,81.33
2023-01-07T09:10:22.593Z,81.32
2023-01-07T09:12:51.025Z,81.13
2023-01-07T09:15:19.282Z,81.15
2023-01-07T09:17:47.488Z,81.22
2023-01-07T09:20:15.596Z,81.29
2023-01-07T09:22:45.291Z,80.71
2023-01-07T09:25:13.568Z,81.15
2023-01-07T09:27:43.137Z,80.97
2023-01-07T09:30:12.436Z,81.29
2023-01-07T09:32:40.723Z,81.47
2023-01-07T09:35:09.866Z,81.53
2023-01-07T09:37:38.247Z,81.13
2023-01-07T09:40:20.366Z,81.33
2023-01-07T09:42:59.478Z,81.52
2023-01-07T09:45:32.815Z,80.98
2023-01-07T09:48:06.839Z,80.98
2023-01-07T09:50:48.141Z,81.38
2023-01-07T09:53:22.811Z,81.51
2023-01-07T09:56:11.127Z,81.20
2023-01-07T09:58:45.074Z,80.94
2023-01-07T10:01:27.013Z,80.51
2023-01-07T10:04:20.538Z,80.58
2023-01-07T10:07:03.272Z,80.90
2023-01-07T10:09:49.819Z,81.02
2023-01-07T10:12:31.635Z,80.31
2023-01-07T10:15:35.928Z,80.32
2023-01-07T10:18:33.155Z,79.56
2023-01-07T10:21:13.865Z,80.08
2023-01-07T10:23:47.352Z,79.53
2023-01-07T10:26:30.218Z,80.01
2023-01-07T10:29:07.696Z,80.02
2023-01-07T10:31:37.202Z,79.33
2023-01-07T10:34:15.373Z,79.35
2023-01-07T10:37:02.291Z,79.68
2023-01-07T10:39:46.624Z,79.70
2023-01-07T10:42:24.207Z,80.03
2023-01-07T10:45:43.438Z,79.45
2023-01-07T10:48:40.365Z,79.42
2023-01-07T10:51:25.793Z,79.54
2023-01-07T10:54:06.416Z,78.82
2023-01-07T10:56:41.076Z,78.36
2023-01-07T10:59:15.827Z,78.32
2023-01-07T11:01:52.226Z,76.79
2023-01-07T11:04:20.522Z,76.08
2023-01-07T11:06:54.635Z,76.37
2023-01-07T11:09:29.428Z,76.81
2023-01-07T11:12:03.880Z,76.31
2023-01-07T11:14:37.342Z,75.17
2023-01-07T11:17:27.079Z,74.92
2023-01-07T11:19:55.156Z,74.71
2023-01-07T11:22:35.153Z,74.50
2023-01-07T11:25:27.049Z,72.47
2023-01-07T11:27:57.735Z,71.84
2023-01-07T11:30:29.413Z,71.38
2023-01-07T11:33:03.884Z,71.11
2023-01-07T11:35:32.534Z,72.60
2023-01-07T11:38:01.580Z,71.07
2023-01-07T11:40:32.405Z,73.32
2023-01-07T11:43:05.003Z,72.46
2023-01-07T11:45:37.616Z,72.88
2023-01-07T11:48:18.515Z,72.88
2023-01-07T11:50:58.872Z,72.67
2023-01-07T11:53:37.309Z,72.33
2023-01-07T11:56:09.230Z,70.88
2023-01-07T11:58:40.541Z,72.93
2023-01-07T12:01:19.114Z,70.27
2023-01-07T12:04:13.888Z,70.17
2023-01-07T12:06:47.422Z,68.88
2023-01-07T12:09:26.673Z,68.34
2023-01-07T12:11:58.501Z,65.99
2023-01-07T12:14:32.301Z,67.46
2023-01-07T12:17:12.456Z,66.94
2023-01-07T12:20:05.318Z,65.38
2023-01-07T12:22:45.734Z,66.30
2023-01-07T12:25:35.636Z,65.32
2023-01-07T12:28:13.368Z,65.73
2023-01-07T12:31:15.485Z,66.10
2023-01-07T12:34:05.895Z,67.77
2023-01-07T12:36:47.018Z,68.73
2023-01-07T12:39:23.524Z,69.48
2023-01-07T12:42:04.891Z,69.76
2023-01-07T12:44:35.281Z,70.23
2023-01-07T12:47:32.507Z,70.96
2023-01-07T12:50:11.400Z,71.18
2023-01-07T12:52:46.350Z,71.51
2023-01-07T12:55:20.773Z,72.22
2023-01-07T12:58:12.473Z,72.08
2023-01-07T13:00:49.889Z,72.24
2023-01-07T13:03:38.538Z,72.19
2023-01-07T13:06:15.164Z,72.08
2023-01-07T13:08:55.634Z,72.44
2023-01-07T13:11:46.242Z,71.60
2023-01-07T13:14:25.060Z,72.11
2023-01-07T13:16:53.114Z,72.19
2023-01-07T13:19:21.182Z,72.46
2023-01-07T13:21:51.516Z,72.52
2023-01-07T13:24:55.612Z,72.63
2023-01-07T13:27:37.767Z,72.51
2023-01-07T13:30:24.249Z,72.58
2023-01-07T13:33:10.754Z,72.74
2023-01-07T13:36:12.353Z,73.02
2023-01-07T13:39:14.353Z,72.97
2023-01-07T13:42:05.140Z,72.82
2023-01-07T13:45:09.444Z,72.54
2023-01-07T13:47:47.812Z,72.80
2023-01-07T13:50:27.923Z,72.92
2023-01-07T13:53:03.985Z,72.49
2023-01-07T13:55:40.457Z,72.81
2023-01-07T13:58:45.700Z,72.77
2023-01-07T14:01:16.152Z,72.97
2023-01-07T14:03:49.522Z,73.32
2023-01-07T14:06:48.034Z,72.98
2023-01-07T14:09:24.853Z,72.79
2023-01-07T14:12:49.123Z,72.38
2023-01-07T14:15:53.830Z,72.24
2023-01-07T14:19:02.715Z,72.41
2023-01-07T14:22:03.825Z,72.54
2023-01-07T14:25:24.634Z,72.57
2023-01-07T14:28:27.548Z,73.28
2023-01-07T14:30:58.168Z,73.43
2023-01-07T14:33:29.400Z,74.22
2023-01-07T14:36:01.720Z,74.33
2023-01-07T14:39:06.516Z,74.42
2023-01-07T14:41:34.731Z,73.96
2023-01-07T14:44:29.692Z,74.09
2023-01-07T14:46:59.353Z,74.02
2023-01-07T14:49:58.055Z,73.33
2023-01-07T14:53:22.443Z,73.31
2023-01-07T14:56:31.754Z,72.87
2023-01-07T14:59:25.307Z,71.48
2023-01-07T15:02:29.865Z,71.66
2023-01-07T15:05:23.913Z,71.31
2023-01-07T15:08:18.624Z,71.37
2023-01-07T15:11:10.048Z,70.91
2023-01-07T15:14:05.671Z,70.41
2023-01-07T15:16:36.944Z,71.14
2023-01-07T15:19:10.605Z,70.49
2023-01-07T15:21:58.191Z,71.12
2023-01-07T15:24:40.024Z,70.78
2023-01-07T15:27:22.224Z,70.82
2023-01-07T15:30:00.658Z,70.35
2023-01-07T15:32:46.680Z,70.40
2023-01-07T15:35:21.790Z,69.82
2023-01-07T15:37:52.396Z,69.96
2023-01-07T15:40:25.300Z,69.33
2023-01-07T15:42:58.708Z,69.12
2023-01-07T15:45:28.778Z,69.24
2023-01-07T15:48:08.470Z,68.97
2023-01-07T15:50:46.186Z,68.49
2023-01-07T15:53:22.968Z,68.24
2023-01-07T15:55:58.922Z,69.33
2023-01-07T15:58:37.200Z,69.75
2023-01-07T16:01:06.825Z,70.21
2023-01-07T16:03:40.304Z,70.27
2023-01-07T16:06:35.725Z,70.17
2023-01-07T16:09:18.822Z,70.23
2023-01-07T16:11:47.051Z,70.30
2023-01-07T16:14:18.784Z,70.52
2023-01-07T16:16:46.889Z,70.53
2023-01-07T16:19:21.373Z,70.45
2023-01-07T16:21:56.573Z,70.01
2023-01-07T16:24:25.155Z,69.72
2023-01-07T16:26:59.157Z,70.60
2023-01-07T16:29:31.989Z,69.91
2023-01-07T16:32:02.279Z,70.30
2023-01-07T16:35:03.507Z,70.34
2023-01-07T16:37:35.471Z,69.54
2023-01-07T16:40:06.877Z,70.40
2023-01-07T16:42:35.689Z,70.55
2023-01-07T16:45:24.550Z,71.01
2023-01-07T16:48:21.324Z,70.66
2023-01-07T16:50:51.135Z,70.59
2023-01-07T16:53:30.376Z,70.49
2023-01-07T16:56:16.778Z,70.11
2023-01-07T16:58:52.720Z,70.60
2023-01-07T17:01:30.716Z,70.40
2023-01-07T17:04:02.602Z,71.09
2023-01-07T17:06:40.495Z,70.92
2023-01-07T17:09:22.763Z,70.58
2023-01-07T17:11:53.582Z,70.61
2023-01-07T17:14:48.761Z,70.90
2023-01-07T17:17:32.832Z,71.24
2023-01-07T17:20:22.176Z,71.02
2023-01-07T17:22:50.840Z,70.61
2023-01-07T17:25:28.031Z,70.58
2023-01-07T17:28:00.889Z,70.03
2023-01-07T17:30:35.983Z,70.15
2023-01-07T17:33:05.096Z,70.95
2023-01-07T17:35:33.195Z,70.57
2023-01-07T17:38:01.250Z,70.22
2023-01-07T17:40:30.716Z,69.75
2023-01-07T17:43:16.265Z,69.68
2023-01-07T17:45:44.311Z,70.15
2023-01-07T17:48:14.370Z,70.09
2023-01-07T17:50:43.601Z,70.72
2023-01-07T17:53:23.073Z,70.28
2023-01-07T17:55:52.922Z,69.30
2023-01-07T17:58:29.890Z,69.54
2023-01-07T18:01:01.533Z,68.80
2023-01-07T18:03:30.202Z,68.42
2023-01-07T18:05:58.395Z,68.50
2023-01-07T18:08:26.442Z,68.46
2023-01-07T18:11:14.427Z,68.46
2023-01-07T18:13:43.370Z,68.94
2023-01-07T18:16:15.483Z,68.76
2023-01-07T18:18:43.658Z,69.11
2023-01-07T18:21:13.228Z,69.36
2023-01-07T18:23:41.314Z,69.43
2023-01-07T18:26:11.575Z,69.64
2023-01-07T18:28:39.759Z,69.56
2023-01-07T18:31:08.231Z,69.66
2023-01-07T18:33:36.821Z,69.54
2023-01-07T18:36:05.535Z,69.85
2023-01-07T18:38:33.707Z,69.43
2023-01-07T18:41:02.491Z,70.01
2023-01-07T18:43:32.014Z,70.09
2023-01-07T18:46:00.167Z,69.57
2023-01-07T18:48:28.340Z,70.29
2023-01-07T18:50:57.747Z,69.73
2023-01-07T18:53:26.649Z,69.09
2023-01-07T18:56:02.118Z,68.84
2023-01-07T18:58:31.866Z,68.17
2023-01-07T19:01:04.593Z,68.21
2023-01-07T19:03:33.173Z,68.41
2023-01-07T19:06:05.795Z,68.43
2023-01-07T19:08:33.931Z,68.19
2023-01-07T19:11:02.103Z,68.23
2023-01-07T19:13:31.720Z,68.13
2023-01-07T19:16:01.326Z,68.36
2023-01-07T19:18:29.554Z,68.95
2023-01-07T19:20:57.620Z,68.39
2023-01-07T19:23:25.668Z,68.91
2023-01-07T19:26:01.636Z,68.67
2023-01-07T19:28:32.601Z,68.87
2023-01-07T19:31:00.884Z,68.83
2023-01-07T19:33:28.956Z,68.89
2023-01-07T19:36:03.518Z,69.40
2023-01-07T19:38:31.991Z,69.08
2023-01-07T19:41:00.093Z,69.65
2023-01-07T19:43:28.131Z,69.63
2023-01-07T19:45:58.371Z,69.85
2023-01-07T19:48:26.439Z,69.44
2023-01-07T19:50:56.722Z,69.47
2023-01-07T19:53:25.162Z,69.59
2023-01-07T19:55:54.393Z,69.43
2023-01-07T19:58:22.917Z,69.40
2023-01-07T20:00:51.070Z,69.86
2023-01-07T20:03:20.594Z,69.43
2023-01-07T20:05:48.652Z,69.81
2023-01-07T20:08:16.675Z,69.64
2023-01-07T20:10:44.708Z,69.71
2023-01-07T20:13:12.790Z,69.32
2023-01-07T20:15:40.854Z,69.25
2023-01-07T20:18:08.874Z,68.79
2023-01-07T20:20:38.253Z,68.70
2023-01-07T20:23:06.264Z,68.76
2023-01-07T20:25:34.308Z,68.62
2023-01-07T20:28:02.373Z,68.51
2023-01-07T20:30:30.471Z,68.52
2023-01-07T20:32:58.549Z,68.05
2023-01-07T20:35:26.605Z,68.30
2023-01-07T20:37:56.128Z,68.28
2023-01-07T20:40:24.571Z,68.37
2023-01-07T20:42:52.601Z,68.51
2023-01-07T20:45:20.663Z,68.43
2023-01-07T20:47:48.728Z,68.60
2023-01-07T20:50:18.283Z,69.08
2023-01-07T20:52:46.384Z,69.18
2023-01-07T20:55:16.037Z,68.80
2023-01-07T20:57:44.102Z,68.41
2023-01-07T21:00:13.797Z,68.49
2023-01-07T21:02:41.930Z,68.25
2023-01-07T21:05:10.811Z,68.33
2023-01-07T21:07:38.864Z,68.64
2023-01-07T21:10:07.865Z,68.05
2023-01-07T21:12:37.318Z,67.60
2023-01-07T21:15:06.766Z,68.01
2023-01-07T21:17:34.865Z,68.24
2023-01-07T21:20:03.576Z,68.35
2023-01-07T21:22:31.801Z,68.58
2023-01-07T21:24:59.950Z,67.72
2023-01-07T21:27:28.036Z,68.25
2023-01-07T21:29:57.483Z,67.54
2023-01-07T21:32:25.589Z,67.66
2023-01-07T21:34:53.733Z,66.94
2023-01-07T21:37:21.811Z,67.38
2023-01-07T21:39:51.261Z,67.85
2023-01-07T21:42:19.515Z,67.32
2023-01-07T21:44:47.567Z,67.26
2023-01-07T21:47:17.303Z,67.05
2023-01-07T21:49:45.687Z,67.40
2023-01-07T21:52:13.784Z,67.27
2023-01-07T21:54:41.872Z,67.32
2023-01-07T21:57:09.975Z,67.32
2023-01-07T21:59:37.994Z,67.89
2023-01-07T22:02:06.413Z,68.12
2023-01-07T22:04:36.023Z,67.96
2023-01-07T22:07:04.108Z,68.35
2023-01-07T22:09:32.138Z,68.21
2023-01-07T22:12:00.202Z,68.41
2023-01-07T22:14:28.335Z,67.91
2023-01-07T22:16:56.441Z,68.23
2023-01-07T22:19:25.871Z,67.48
2023-01-07T22:21:55.447Z,67.81
2023-01-07T22:24:23.536Z,67.68
2023-01-07T22:26:52.697Z,68.28
2023-01-07T22:29:20.754Z,68.20
2023-01-07T22:31:50.999Z,67.78
2023-01-07T22:34:19.669Z,67.48
2023-01-07T22:36:55.025Z,67.86
2023-01-07T22:39:30.832Z,67.67
2023-01-07T22:42:06.792Z,67.36
2023-01-07T22:44:40.619Z,67.38
2023-01-07T22:47:12.059Z,67.71
2023-01-07T22:49:41.641Z,67.72
2023-01-07T22:52:11.599Z,67.66
2023-01-07T22:54:41.411Z,68.14
2023-01-07T22:57:12.972Z,67.22
2023-01-07T22:59:41.096Z,67.67
2023-01-07T23:02:09.753Z,67.78
2023-01-07T23:04:37.886Z,67.88
2023-01-07T23:07:05.985Z,67.18
2023-01-07T23:09:34.128Z,66.92
2023-01-07T23:12:03.927Z,67.00
2023-01-07T23:14:32.497Z,65.83
2023-01-07T23:17:00.542Z,65.98
2023-01-07T23:19:30.803Z,66.23
2023-01-07T23:22:00.120Z,66.32
2023-01-07T23:24:28.332Z,66.28
2023-01-07T23:26:57.139Z,66.23
2023-01-07T23:29:26.786Z,66.08
2023-01-07T23:31:54.946Z,66.14
2023-01-07T23:34:23.107Z,66.03
2023-01-07T23:36:51.137Z,65.72
2023-01-07T23:39:19.261Z,65.92
2023-01-07T23:41:47.320Z,65.83
2023-01-07T23:44:15.516Z,65.74
2023-01-07T23:46:44.901Z,66.65
2023-01-07T23:49:13.009Z,66.83
2023-01-07T23:51:42.212Z,67.13
2023-01-07T23:54:11.275Z,67.35
2023-01-07T23:56:39.347Z,67.69
2023-01-07T23:59:07.519Z,67.89
